Time;durP1;ratioP1;P1;durP2;ratioP2;P2;SDS_P1;SDS_P2;PMS_P1;PMS_P2;Temp;Humidity;BMP_temperature;BMP_pressure;BME280_temperature;BME280_humidity;BME280_pressure;Samples;Min_cycle;Max_cycle;Signal;HPM_P1;HPM_P2
2023/09/22 00:00:00;;;;;;;;;;;;;;;13.46;100.00;99643.69;4985958;28;19984;-92
2023/09/22 00:02:46;;;;;;;;;;;;;;;13.46;100.00;99643.69;4953548;28;20023;-90
2023/09/22 00:05:32;;;;;;;;;;;;;;;13.47;100.00;99647.19;4975864;28;19941;-89
2023/09/22 00:08:18;;;;;;;;;;;;;;;13.46;100.00;99642.84;4945751;28;19938;-91
2023/09/22 00:11:13;;;;;;;;;;;;;;;13.48;100.00;99638.25;4959328;28;19929;-95
2023/09/22 00:14:01;;;;;;;;;;;;;;;13.51;100.00;99635.38;4961594;28;19930;-95
2023/09/22 00:16:46;;;;;;;;;;;;;;;13.52;100.00;99637.06;4981616;28;20106;-89
2023/09/22 00:19:32;;;;;;;;;;;;;;;13.50;100.00;99637.16;4952681;28;19980;-88
2023/09/22 00:22:18;;;;;;;;;;;;;;;13.48;100.00;99631.13;4943340;28;20509;-89
2023/09/22 00:25:04;;;;;;;;;;;;;;;13.49;100.00;99634.63;4973434;28;19930;-86
2023/09/22 00:27:49;;;;;;;;;;;;;;;13.50;100.00;99633.69;4958130;28;19934;-87
2023/09/22 00:30:35;;;;;;;;;;;;;;;13.47;100.00;99628.56;4959596;28;20620;-87
2023/09/22 00:33:21;;;;;;;;;;;;;;;13.47;100.00;99633.91;4976980;28;19925;-88
2023/09/22 00:36:06;;;;;;;;;;;;;;;13.44;100.00;99638.47;4976110;28;19960;-87
2023/09/22 00:38:52;;;;;;;;;;;;;;;13.45;100.00;99647.25;4961124;28;19929;-88
2023/09/22 00:41:38;;;;;;;;;;;;;;;13.43;100.00;99651.88;4946498;28;19932;-89
2023/09/22 00:44:24;;;;;;;;;;;;;;;13.46;100.00;99658.78;4947715;28;19930;-88
2023/09/22 00:47:14;;;;;;;;;;;;;;;13.44;100.00;99653.56;4961892;28;20381;-90
2023/09/22 00:49:59;;;;;;;;;;;;;;;13.43;100.00;99650.06;4951882;28;19940;-88
2023/09/22 00:52:45;;;;;;;;;;;;;;;13.39;100.00;99648.59;4948560;28;20099;-87
2023/09/22 00:55:31;;;;;;;;;;;;;;;13.40;100.00;99641.47;4980955;28;19972;-91
2023/09/22 00:58:17;;;;;;;;;;;;;;;13.39;100.00;99648.59;4952819;28;19929;-90
2023/09/22 01:01:02;;;;;;;;;;;;;;;13.40;100.00;99649.44;4945616;28;19937;-92
2023/09/22 01:03:48;;;;;;;;;;;;;;;13.39;100.00;99658.38;4958327;28;19933;-95
2023/09/22 01:06:35;;;;;;;;;;;;;;;13.38;100.00;99654.88;4960630;28;20286;-93
2023/09/22 01:09:21;;;;;;;;;;;;;;;13.39;100.00;99653.91;4936150;28;19952;-95
2023/09/22 01:12:06;;;;;;;;;;;;;;;13.39;100.00;99648.59;4968676;28;20309;-93
2023/09/22 01:14:52;;;;;;;;;;;;;;;13.40;100.00;99657.44;4965557;28;20021;-94
2023/09/22 01:17:38;;;;;;;;;;;;;;;13.39;100.00;99664.53;4967535;28;20547;-93
2023/09/22 01:20:26;;;;;;;;;;;;;;;13.39;100.00;99659.22;4964166;28;19988;-93
2023/09/22 01:23:12;;;;;;;;;;;;;;;13.39;100.00;99653.03;4936892;28;19926;-94
2023/09/22 01:25:58;;;;;;;;;;;;;;;13.39;100.00;99653.03;4948673;28;19930;-92
2023/09/22 01:28:44;;;;;;;;;;;;;;;13.38;100.00;99648.69;4951149;28;19941;-93
2023/09/22 01:31:29;;;;;;;;;;;;;;;13.34;100.00;99649.91;4965566;28;19936;-92
2023/09/22 01:34:15;;;;;;;;;;;;;;;13.30;100.00;99654.63;4938642;28;20004;-92
2023/09/22 01:37:07;;;;;;;;;;;;;;;13.25;100.00;99662.09;4945314;28;19958;-92
2023/09/22 01:39:52;;;;;;;;;;;;;;;13.20;100.00;99658.91;4962317;28;20228;-90
2023/09/22 01:42:38;;;;;;;;;;;;;;;13.15;100.00;99661.94;4934440;28;19933;-91
2023/09/22 01:45:23;;;;;;;;;;;;;;;13.11;100.00;99663.97;4960908;28;19944;-92
2023/09/22 01:48:12;;;;;;;;;;;;;;;13.04;100.00;99668.88;4957004;28;19930;-92
2023/09/22 01:51:10;;;;;;;;;;;;;;;12.99;100.00;99672.84;4958354;28;19926;-91
2023/09/22 01:53:56;;;;;;;;;;;;;;;12.95;100.00;99674.91;4958176;28;19926;-91
2023/09/22 01:56:42;;;;;;;;;;;;;;;12.90;100.00;99669.06;4957775;28;19985;-93
2023/09/22 01:59:28;;;;;;;;;;;;;;;12.85;100.00;99676.56;4965475;28;19940;-93
2023/09/22 02:02:14;;;;;;;;;;;;;;;12.81;100.00;99672.41;4955596;28;19964;-91
2023/09/22 02:04:59;;;;;;;;;;;;;;;12.75;100.00;99687.81;4971294;28;19933;-91
2023/09/22 02:07:45;;;;;;;;;;;;;;;12.70;100.00;99692.63;4973707;28;20072;-88
2023/09/22 02:10:31;;;;;;;;;;;;;;;12.67;100.00;99689.34;4976383;28;20017;-88
2023/09/22 02:13:17;;;;;;;;;;;;;;;12.59;100.00;99696.06;4974116;28;19972;-90
2023/09/22 02:16:03;;;;;;;;;;;;;;;12.54;100.00;99702.66;4958986;28;19933;-89
2023/09/22 02:18:50;;;;;;;;;;;;;;;12.49;100.00;99703.00;4958397;28;20597;-87
2023/09/22 02:21:35;;;;;;;;;;;;;;;12.46;100.00;99697.91;4957731;28;19930;-90
2023/09/22 02:24:21;;;;;;;;;;;;;;;12.38;100.00;99687.00;4959286;28;19932;-89
2023/09/22 02:27:07;;;;;;;;;;;;;;;12.35;100.00;99688.91;4960055;28;19936;-89
2023/09/22 02:29:52;;;;;;;;;;;;;;;12.32;100.00;99689.13;4952445;28;19934;-88
2023/09/22 02:32:38;;;;;;;;;;;;;;;12.31;100.00;99694.56;4963763;28;19936;-89
2023/09/22 02:35:24;;;;;;;;;;;;;;;12.30;100.00;99693.69;4955257;28;19980;-89
2023/09/22 02:38:10;;;;;;;;;;;;;;;12.26;100.00;99691.38;4962867;28;20012;-88
2023/09/22 02:40:56;;;;;;;;;;;;;;;12.21;100.00;99683.75;4948410;28;21773;-88
2023/09/22 02:43:41;;;;;;;;;;;;;;;12.17;100.00;99680.47;4961441;28;19948;-88
2023/09/22 02:46:27;;;;;;;;;;;;;;;12.13;100.00;99689.59;4978574;28;19938;-88
2023/09/22 02:49:12;;;;;;;;;;;;;;;12.07;100.00;99693.53;4977997;28;20000;-91
2023/09/22 02:51:58;;;;;;;;;;;;;;;12.02;100.00;99695.63;4951213;28;19961;-88
2023/09/22 02:54:44;;;;;;;;;;;;;;;11.99;100.00;99690.50;4963153;28;19941;-87
2023/09/22 02:57:29;;;;;;;;;;;;;;;11.94;100.00;99697.97;4977130;28;19929;-87
2023/09/22 03:00:18;;;;;;;;;;;;;;;11.88;100.00;99704.50;4957362;28;19926;-88
2023/09/22 03:03:03;;;;;;;;;;;;;;;11.84;100.00;99696.88;4972937;28;19991;-89
2023/09/22 03:05:49;;;;;;;;;;;;;;;11.80;100.00;99704.19;4978417;28;20393;-90
2023/09/22 03:08:35;;;;;;;;;;;;;;;11.81;100.00;99711.19;4944019;28;20286;-88
2023/09/22 03:11:21;;;;;;;;;;;;;;;11.81;100.00;99701.44;4958466;28;19937;-89
2023/09/22 03:14:09;;;;;;;;;;;;;;;11.83;100.00;99714.63;4959542;28;19928;-87
2023/09/22 03:16:55;;;;;;;;;;;;;;;11.83;100.00;99717.25;4962832;28;19948;-90
2023/09/22 03:19:44;;;;;;;;;;;;;;;11.85;100.00;99719.78;4956871;28;20393;-89
2023/09/22 03:22:29;;;;;;;;;;;;;;;11.85;100.00;99725.97;4958563;28;21064;-88
2023/09/22 03:25:15;;;;;;;;;;;;;;;11.86;100.00;99721.47;4950338;28;20031;-89
2023/09/22 03:28:04;;;;;;;;;;;;;;;11.89;100.00;99710.69;4944710;28;19969;-90
2023/09/22 03:30:49;;;;;;;;;;;;;;;11.92;100.00;99715.75;4962123;28;20458;-89
2023/09/22 03:33:35;;;;;;;;;;;;;;;11.95;100.00;99712.91;4976784;28;19934;-89
2023/09/22 03:36:21;;;;;;;;;;;;;;;11.96;100.00;99717.25;4959986;28;19934;-87
2023/09/22 03:39:12;;;;;;;;;;;;;;;11.98;100.00;99720.63;4958270;28;19930;-88
2023/09/22 03:41:58;;;;;;;;;;;;;;;12.00;100.00;99724.06;4943933;28;19926;-88
2023/09/22 03:44:43;;;;;;;;;;;;;;;12.04;100.00;99725.56;4954993;28;21296;-88
2023/09/22 03:47:32;;;;;;;;;;;;;;;12.07;100.00;99725.34;4973960;28;20008;-88
2023/09/22 03:50:18;;;;;;;;;;;;;;;12.12;100.00;99730.34;4956634;28;20008;-89
2023/09/22 03:53:03;;;;;;;;;;;;;;;12.14;100.00;99733.72;4959452;28;19961;-88
2023/09/22 03:55:49;;;;;;;;;;;;;;;12.18;100.00;99737.00;4949639;28;20510;-88
2023/09/22 03:58:35;;;;;;;;;;;;;;;12.21;100.00;99736.81;4955747;28;19930;-89
2023/09/22 04:01:20;;;;;;;;;;;;;;;12.25;100.00;99740.94;4953566;28;19930;-88
2023/09/22 04:04:12;;;;;;;;;;;;;;;12.28;100.00;99742.53;4956082;28;20491;-88
2023/09/22 04:06:59;;;;;;;;;;;;;;;12.31;100.00;99748.47;4931127;28;19930;-88
2023/09/22 04:09:45;;;;;;;;;;;;;;;12.33;100.00;99741.22;4924696;28;20338;-89
2023/09/22 04:12:30;;;;;;;;;;;;;;;12.35;100.00;99741.13;4948241;28;19930;-86
2023/09/22 04:15:16;;;;;;;;;;;;;;;12.37;100.00;99741.91;4942346;28;19934;-89
2023/09/22 04:18:02;;;;;;;;;;;;;;;12.38;100.00;99740.94;4954817;28;20345;-87
2023/09/22 04:20:51;;;;;;;;;;;;;;;12.39;100.00;99739.09;4941072;28;20414;-89
2023/09/22 04:23:36;;;;;;;;;;;;;;;12.41;100.00;99738.06;4955530;28;20021;-88
2023/09/22 04:26:27;;;;;;;;;;;;;;;12.43;100.00;99745.91;4936958;28;20456;-86
2023/09/22 04:29:14;;;;;;;;;;;;;;;12.46;100.00;99758.94;4928094;28;19930;-87
2023/09/22 04:31:59;;;;;;;;;;;;;;;12.47;100.00;99756.19;4928262;28;19930;-88
2023/09/22 04:34:45;;;;;;;;;;;;;;;12.49;100.00;99751.63;4956399;28;19965;-88
2023/09/22 04:37:30;;;;;;;;;;;;;;;12.51;100.00;99759.47;4929460;28;19940;-88
2023/09/22 04:40:29;;;;;;;;;;;;;;;12.53;100.00;99760.22;4954780;28;19945;-88
2023/09/22 04:43:21;;;;;;;;;;;;;;;12.54;100.00;99759.28;4944594;28;20123;-88
2023/09/22 04:46:06;;;;;;;;;;;;;;;12.53;100.00;99760.22;4928146;28;20132;-87
2023/09/22 04:48:54;;;;;;;;;;;;;;;12.52;100.00;99757.69;4939937;28;20377;-87
2023/09/22 04:51:40;;;;;;;;;;;;;;;12.54;100.00;99753.97;4941002;28;19926;-87
2023/09/22 04:54:26;;;;;;;;;;;;;;;12.56;100.00;99753.84;4929433;28;19933;-88
2023/09/22 04:57:12;;;;;;;;;;;;;;;12.55;100.00;99750.34;4939968;28;19932;-89
2023/09/22 05:00:04;;;;;;;;;;;;;;;12.56;100.00;99746.75;4940952;28;19952;-88
2023/09/22 05:02:52;;;;;;;;;;;;;;;12.56;100.00;99745.88;4940742;28;19926;-89
2023/09/22 05:05:40;;;;;;;;;;;;;;;12.55;100.00;99744.19;4954093;28;21623;-89
2023/09/22 05:08:30;;;;;;;;;;;;;;;12.54;100.00;99747.81;4951668;28;19938;-88
2023/09/22 05:11:15;;;;;;;;;;;;;;;12.53;100.00;99749.59;4951420;28;19976;-91
2023/09/22 05:14:04;;;;;;;;;;;;;;;12.50;100.00;99763.94;4954658;28;20022;-91
2023/09/22 05:16:50;;;;;;;;;;;;;;;12.47;100.00;99763.28;4964301;28;21477;-92
2023/09/22 05:19:36;;;;;;;;;;;;;;;12.43;100.00;99764.50;4944767;28;20396;-91
2023/09/22 05:22:22;;;;;;;;;;;;;;;12.38;100.00;99766.63;4956310;28;19957;-90
2023/09/22 05:25:09;;;;;;;;;;;;;;;12.35;100.00;99770.31;4954729;28;19926;-89
2023/09/22 05:27:55;;;;;;;;;;;;;;;12.31;100.00;99774.16;4955798;28;19933;-87
2023/09/22 05:30:41;;;;;;;;;;;;;;;12.27;100.00;99770.88;4952870;28;19934;-88
2023/09/22 05:33:29;;;;;;;;;;;;;;;12.23;100.00;99769.38;4955345;28;20677;-90
2023/09/22 05:36:14;;;;;;;;;;;;;;;12.18;100.00;99782.13;4954711;28;20028;-88
2023/09/22 05:39:00;;;;;;;;;;;;;;;12.11;100.00;99786.16;4963392;28;19938;-88
2023/09/22 05:41:47;;;;;;;;;;;;;;;12.03;100.00;99787.53;4953914;28;19997;-88
2023/09/22 05:44:33;;;;;;;;;;;;;;;11.99;100.00;99796.59;4950089;28;20064;-88
2023/09/22 05:47:19;;;;;;;;;;;;;;;11.94;100.00;99788.13;4954808;28;19930;-86
2023/09/22 05:50:05;;;;;;;;;;;;;;;11.90;100.00;99790.16;4952962;28;20024;-86
2023/09/22 05:52:51;;;;;;;;;;;;;;;11.89;100.00;99800.84;4950520;28;19962;-89
2023/09/22 05:55:37;;;;;;;;;;;;;;;11.85;100.00;99794.91;4952707;28;20661;-87
2023/09/22 05:58:22;;;;;;;;;;;;;;;11.85;100.00;99802.88;4950034;28;20271;-87
2023/09/22 06:01:11;;;;;;;;;;;;;;;11.85;100.00;99808.16;4977256;28;20415;-87
2023/09/22 06:04:01;;;;;;;;;;;;;;;11.84;100.00;99808.25;4960029;28;19960;-86
2023/09/22 06:06:47;;;;;;;;;;;;;;;11.84;100.00;99806.47;4975247;28;19934;-87
2023/09/22 06:09:33;;;;;;;;;;;;;;;11.84;100.00;99808.25;4974499;28;20068;-87
2023/09/22 06:12:18;;;;;;;;;;;;;;;11.84;100.00;99811.78;4975592;28;20036;-86
2023/09/22 06:15:06;;;;;;;;;;;;;;;11.84;100.00;99819.72;4976318;28;19949;-86
2023/09/22 06:17:51;;;;;;;;;;;;;;;11.85;100.00;99818.78;4976138;28;20175;-86
2023/09/22 06:20:37;;;;;;;;;;;;;;;11.86;100.00;99815.16;4971625;28;19941;-84
2023/09/22 06:23:23;;;;;;;;;;;;;;;11.88;100.00;99812.41;4970381;28;20645;-84
2023/09/22 06:26:12;;;;;;;;;;;;;;;11.90;100.00;99821.97;4954233;28;20393;-87
2023/09/22 06:28:58;;;;;;;;;;;;;;;11.93;100.00;99828.88;4957452;28;20044;-88
2023/09/22 06:31:43;;;;;;;;;;;;;;;11.96;100.00;99826.00;4974053;28;19940;-89
2023/09/22 06:34:30;;;;;;;;;;;;;;;12.01;100.00;99829.19;4970371;28;19930;-86
2023/09/22 06:37:16;;;;;;;;;;;;;;;12.05;100.00;99828.06;4954330;28;19969;-88
2023/09/22 06:40:09;;;;;;;;;;;;;;;12.09;100.00;99836.66;4957795;28;20006;-86
2023/09/22 06:42:55;;;;;;;;;;;;;;;12.15;100.00;99835.41;4971272;28;20020;-88
2023/09/22 06:45:41;;;;;;;;;;;;;;;12.17;100.00;99828.19;4973356;28;20358;-88
2023/09/22 06:48:26;;;;;;;;;;;;;;;12.20;100.00;99834.13;4969818;28;20672;-88
2023/09/22 06:51:13;;;;;;;;;;;;;;;12.27;100.00;99829.25;4957865;28;19930;-87
2023/09/22 06:53:59;;;;;;;;;;;;;;;12.29;100.00;99830.00;4958452;28;19986;-90
2023/09/22 06:56:46;;;;;;;;;;;;;;;12.33;100.00;99834.13;4945547;28;19941;-86
2023/09/22 06:59:32;;;;;;;;;;;;;;;12.36;100.00;99835.72;4967437;28;20385;-86
2023/09/22 07:02:17;;;;;;;;;;;;;;;12.41;100.00;99848.69;4950836;28;20012;-87
2023/09/22 07:05:05;;;;;;;;;;;;;;;12.43;100.00;99846.78;4939211;28;19937;-88
2023/09/22 07:07:52;;;;;;;;;;;;;;;12.44;100.00;99841.38;4953953;28;19949;-88
2023/09/22 07:10:38;;;;;;;;;;;;;;;12.47;100.00;99853.56;4939978;28;19993;-87
2023/09/22 07:13:23;;;;;;;;;;;;;;;12.50;100.00;99853.34;4954878;28;20048;-87
2023/09/22 07:16:12;;;;;;;;;;;;;;;12.53;100.00;99857.59;4940485;28;19926;-88
2023/09/22 07:18:58;;;;;;;;;;;;;;;12.55;100.00;99867.16;4942720;28;20393;-89
2023/09/22 07:21:43;;;;;;;;;;;;;;;12.57;100.00;99870.56;4941574;28;19944;-90
2023/09/22 07:24:29;;;;;;;;;;;;;;;12.59;100.00;99873.94;4955820;28;19934;-86
2023/09/22 07:27:14;;;;;;;;;;;;;;;12.61;100.00;99877.38;4940081;28;19981;-89
2023/09/22 07:30:00;;;;;;;;;;;;;;;12.65;100.00;99874.47;4955472;28;19969;-89
2023/09/22 07:32:47;;;;;;;;;;;;;;;12.66;100.00;99877.03;4954244;28;20378;-90
2023/09/22 07:35:33;;;;;;;;;;;;;;;12.69;100.00;99883.94;4956476;28;19933;-89
2023/09/22 07:38:18;;;;;;;;;;;;;;;12.71;100.00;99879.38;4929747;28;19933;-88
2023/09/22 07:41:04;;;;;;;;;;;;;;;12.71;100.00;99874.91;4937152;28;19934;-90
2023/09/22 07:43:52;;;;;;;;;;;;;;;12.73;100.00;99880.09;4953385;28;19930;-86
2023/09/22 07:46:39;;;;;;;;;;;;;;;12.81;100.00;99875.09;4940608;28;19934;-88
2023/09/22 07:49:26;;;;;;;;;;;;;;;12.92;100.00;99884.13;4941380;28;19930;-86
2023/09/22 07:52:12;;;;;;;;;;;;;;;13.04;100.00;99883.25;4934800;28;19934;-85
2023/09/22 07:54:59;;;;;;;;;;;;;;;13.17;100.00;99892.06;4927173;28;20029;-86
2023/09/22 07:57:49;;;;;;;;;;;;;;;13.25;100.00;99895.97;4935184;28;19972;-86
2023/09/22 08:00:38;;;;;;;;;;;;;;;13.27;100.00;99889.59;4963192;28;20000;-89
2023/09/22 08:03:24;;;;;;;;;;;;;;;13.29;100.00;99897.47;4973398;28;19933;-88
2023/09/22 08:06:12;;;;;;;;;;;;;;;13.34;100.00;99892.63;4971747;28;19934;-90
2023/09/22 08:08:58;;;;;;;;;;;;;;;13.46;100.00;99888.28;4971402;28;19932;-88
2023/09/22 08:11:44;;;;;;;;;;;;;;;13.54;100.00;99885.91;4969762;28;19930;-87
2023/09/22 08:14:29;;;;;;;;;;;;;;;13.53;100.00;99881.56;4951034;28;19944;-86
2023/09/22 08:17:15;;;;;;;;;;;;;;;13.52;100.00;99877.19;4946465;28;20008;-87
2023/09/22 08:20:01;;;;;;;;;;;;;;;13.54;100.00;99882.41;4971181;28;19934;-86
2023/09/22 08:22:47;;;;;;;;;;;;;;;13.54;100.00;99880.59;4940058;28;19926;-88
2023/09/22 08:25:34;;;;;;;;;;;;;;;13.56;100.00;99883.97;4943425;28;19936;-87
2023/09/22 08:28:20;;;;;;;;;;;;;;;13.58;100.00;99882.06;4971139;28;19973;-86
2023/09/22 08:31:07;;;;;;;;;;;;;;;13.62;100.00;99882.66;4973002;28;19937;-86
2023/09/22 08:33:53;;;;;;;;;;;;;;;13.67;100.00;99888.50;4971351;28;20439;-85
2023/09/22 08:36:39;;;;;;;;;;;;;;;13.71;100.00;99894.44;4969922;28;19934;-86
2023/09/22 08:39:25;;;;;;;;;;;;;;;13.76;100.00;99894.09;4970730;28;19968;-84
2023/09/22 08:42:12;;;;;;;;;;;;;;;13.79;100.00;99888.56;4971221;28;19937;-81
2023/09/22 08:44:57;;;;;;;;;;;;;;;13.85;100.00;99893.44;4955209;28;19925;-83
2023/09/22 08:47:45;;;;;;;;;;;;;;;13.87;100.00;99907.47;4942362;28;19929;-85
2023/09/22 08:50:30;;;;;;;;;;;;;;;13.80;100.00;99907.09;4954180;28;19930;-84
2023/09/22 08:53:16;;;;;;;;;;;;;;;13.72;100.00;99914.75;4955664;28;19929;-86
2023/09/22 08:56:04;;;;;;;;;;;;;;;13.73;100.00;99916.47;4970621;28;20753;-82
2023/09/22 08:58:51;;;;;;;;;;;;;;;13.77;100.00;99922.44;4954855;28;20300;-84
2023/09/22 09:01:36;;;;;;;;;;;;;;;13.77;100.00;99917.09;4970124;28;20647;-80
2023/09/22 09:04:29;;;;;;;;;;;;;;;13.74;100.00;99919.97;4971170;28;19926;-85
2023/09/22 09:07:16;;;;;;;;;;;;;;;13.80;100.00;99935.50;4973315;28;19930;-87
2023/09/22 09:10:01;;;;;;;;;;;;;;;13.91;100.00;99930.25;4964817;28;19964;-82
2023/09/22 09:12:47;;;;;;;;;;;;;;;14.04;100.00;99929.28;4927510;28;20072;-83
2023/09/22 09:15:47;;;;;;;;;;;;;;;14.21;100.00;99936.00;4950409;28;19988;-83
2023/09/22 09:18:32;;;;;;;;;;;;;;;14.28;100.00;99931.94;4966826;28;19930;-84
2023/09/22 09:21:18;;;;;;;;;;;;;;;14.31;100.00;99937.03;4950782;28;19936;-84
2023/09/22 09:24:05;;;;;;;;;;;;;;;14.42;100.00;99938.03;4969436;28;19929;-84
2023/09/22 09:26:51;;;;;;;;;;;;;;;14.50;100.00;99940.97;4949141;28;19930;-83
2023/09/22 09:29:37;;;;;;;;;;;;;;;14.49;100.00;99929.44;4951026;28;19926;-82
2023/09/22 09:32:26;;;;;;;;;;;;;;;14.49;100.00;99923.28;4940780;28;20362;-83
2023/09/22 09:35:31;;;;;;;;;;;;;;;14.52;100.00;99928.38;4949674;28;19992;-79
2023/09/22 09:38:17;;;;;;;;;;;;;;;14.56;100.00;99924.53;4954474;28;20667;-79
2023/09/22 09:41:10;;;;;;;;;;;;;;;14.60;100.00;99935.78;4963061;28;20009;-83
2023/09/22 09:43:58;;;;;;;;;;;;;;;14.60;100.00;99930.47;4944952;28;21266;-82
2023/09/22 09:46:43;;;;;;;;;;;;;;;14.53;100.00;99936.25;4966447;28;20000;-83
2023/09/22 09:49:29;;;;;;;;;;;;;;;14.52;100.00;99934.56;4931793;28;19936;-81
2023/09/22 09:52:16;;;;;;;;;;;;;;;14.57;100.00;99939.53;4943129;28;19930;-81
2023/09/22 09:55:07;;;;;;;;;;;;;;;14.62;100.00;99933.84;4942351;28;19922;-81
2023/09/22 09:57:53;;;;;;;;;;;;;;;14.62;100.00;99944.50;4940918;28;20379;-79
2023/09/22 10:00:48;;;;;;;;;;;;;;;14.69;100.00;99937.72;4941148;28;19949;-80
2023/09/22 10:03:35;;;;;;;;;;;;;;;14.72;100.00;99936.66;4958579;28;19932;-80
2023/09/22 10:06:22;;;;;;;;;;;;;;;14.67;100.00;99955.66;4941314;28;19941;-80
2023/09/22 10:09:11;;;;;;;;;;;;;;;14.57;100.00;99957.31;4932897;28;20621;-79
2023/09/22 10:11:56;;;;;;;;;;;;;;;14.45;100.00;99959.09;4947994;28;20444;-80
2023/09/22 10:14:46;;;;;;;;;;;;;;;14.33;100.00;99955.56;4958849;28;20116;-81
2023/09/22 10:17:32;;;;;;;;;;;;;;;14.25;100.00;99957.00;4961459;28;19969;-81
2023/09/22 10:20:19;;;;;;;;;;;;;;;14.20;100.00;99959.16;4959580;28;19930;-82
2023/09/22 10:23:14;;;;;;;;;;;;;;;14.12;100.00;99949.06;4930555;28;19926;-82
2023/09/22 10:26:13;;;;;;;;;;;;;;;14.05;100.00;99954.97;4956968;28;21773;-82
2023/09/22 10:28:59;;;;;;;;;;;;;;;14.00;100.00;99960.59;4928422;28;19988;-81
2023/09/22 10:32:03;;;;;;;;;;;;;;;13.94;100.00;99956.59;4947077;28;19926;-80
2023/09/22 10:34:53;;;;;;;;;;;;;;;13.94;100.00;99959.25;4948502;28;19976;-82
2023/09/22 10:37:55;;;;;;;;;;;;;;;14.02;100.00;99963.16;4967734;28;19933;-81
2023/09/22 10:40:59;;;;;;;;;;;;;;;14.09;100.00;99959.09;4965771;28;20148;-83
2023/09/22 10:43:56;;;;;;;;;;;;;;;14.13;100.00;99965.88;4968638;28;19933;-81
2023/09/22 10:46:54;;;;;;;;;;;;;;;14.17;100.00;99967.34;4934109;28;19925;-80
2023/09/22 10:49:40;;;;;;;;;;;;;;;14.22;100.00;99962.53;4964829;28;19969;-79
2023/09/22 10:52:26;;;;;;;;;;;;;;;14.32;100.00;99954.69;4947888;28;20028;-80
2023/09/22 10:55:13;;;;;;;;;;;;;;;14.46;100.00;99959.00;4963883;28;19940;-81
2023/09/22 10:57:59;;;;;;;;;;;;;;;14.65;100.00;99958.44;4948701;28;19934;-81
2023/09/22 11:00:57;;;;;;;;;;;;;;;14.75;100.00;99961.25;4957190;28;19926;-82
2023/09/22 11:03:51;;;;;;;;;;;;;;;14.79;100.00;99968.06;4957899;28;19926;-79
2023/09/22 11:06:42;;;;;;;;;;;;;;;14.80;100.00;99967.09;4954980;28;20570;-81
2023/09/22 11:09:34;;;;;;;;;;;;;;;14.78;100.00;99970.84;4971400;28;20016;-81
2023/09/22 11:12:20;;;;;;;;;;;;;;;14.73;100.00;99967.63;4967610;28;20029;-80
2023/09/22 11:15:06;;;;;;;;;;;;;;;14.69;100.00;99971.50;4957582;28;19941;-82
2023/09/22 11:17:51;;;;;;;;;;;;;;;14.62;100.00;99981.78;4954157;28;20516;-82
2023/09/22 11:20:38;;;;;;;;;;;;;;;14.61;100.00;99974.75;4949812;28;19957;-81
2023/09/22 11:23:27;;;;;;;;;;;;;;;14.64;100.00;99974.50;4971255;28;19938;-79
2023/09/22 11:26:13;;;;;;;;;;;;;;;14.72;100.00;99977.47;4946688;28;19937;-82
2023/09/22 11:28:59;;;;;;;;;;;;;;;14.83;100.00;99978.47;4944507;28;20437;-82
2023/09/22 11:31:49;;;;;;;;;;;;;;;14.93;100.00;99968.81;4946552;28;20890;-84
2023/09/22 11:34:47;;;;;;;;;;;;;;;14.99;100.00;99988.78;4946214;28;20060;-83
2023/09/22 11:37:33;;;;;;;;;;;;;;;14.99;100.00;99973.63;4945398;28;20749;-82
2023/09/22 11:40:24;;;;;;;;;;;;;;;15.01;100.00;99977.03;4959773;28;20083;-83
2023/09/22 11:43:12;;;;;;;;;;;;;;;15.09;100.00;99978.25;4949133;28;20749;-80
2023/09/22 11:46:14;;;;;;;;;;;;;;;15.12;100.00;99978.00;4946935;28;20814;-78
2023/09/22 11:49:07;;;;;;;;;;;;;;;15.13;100.00;99969.91;4929741;28;19934;-81
2023/09/22 11:51:57;;;;;;;;;;;;;;;15.19;100.00;99992.56;4961964;28;20008;-83
2023/09/22 11:54:43;;;;;;;;;;;;;;;15.19;100.00;100003.22;4961636;28;19991;-82
2023/09/22 11:57:29;;;;;;;;;;;;;;;15.22;100.00;100005.66;4940137;28;19929;-78
2023/09/22 12:00:17;;;;;;;;;;;;;;;15.18;100.00;100022.84;4955953;28;19941;-83
2023/09/22 12:03:03;;;;;;;;;;;;;;;15.04;100.00;100024.78;4925366;28;19937;-82
2023/09/22 12:05:49;;;;;;;;;;;;;;;14.91;100.00;100040.00;4921922;28;19926;-82
2023/09/22 12:08:35;;;;;;;;;;;;;;;14.75;100.00;100030.53;4940583;28;19930;-84
2023/09/22 12:11:23;;;;;;;;;;;;;;;14.62;100.00;100027.06;4951454;28;19934;-83
2023/09/22 12:14:10;;;;;;;;;;;;;;;14.50;100.00;100034.19;4921661;28;19965;-89
2023/09/22 12:16:55;;;;;;;;;;;;;;;14.38;100.00;100033.25;4929512;28;19997;-84
2023/09/22 12:19:41;;;;;;;;;;;;;;;14.31;100.00;100022.22;4957104;28;19930;-91
2023/09/22 12:22:27;;;;;;;;;;;;;;;14.28;100.00;100024.28;4945205;28;19969;-87
2023/09/22 12:25:13;;;;;;;;;;;;;;;14.22;100.00;100029.06;4942283;28;19926;-88
2023/09/22 12:27:59;;;;;;;;;;;;;;;14.21;100.00;100035.38;4955936;28;19934;-88
2023/09/22 12:30:45;;;;;;;;;;;;;;;14.22;100.00;100034.41;4936996;28;20012;-86
2023/09/22 12:33:31;;;;;;;;;;;;;;;14.29;100.00;100034.81;4926687;28;19925;-87
2023/09/22 12:36:17;;;;;;;;;;;;;;;14.34;100.00;100035.28;4955449;28;19972;-86
2023/09/22 12:39:03;;;;;;;;;;;;;;;14.42;100.00;100037.41;4950379;28;20393;-89
2023/09/22 12:41:49;;;;;;;;;;;;;;;14.61;100.00;100038.69;4926526;28;20081;-90
2023/09/22 12:44:35;;;;;;;;;;;;;;;14.79;100.00;100029.34;4954677;28;20453;-87
2023/09/22 12:47:23;;;;;;;;;;;;;;;14.84;100.00;100049.44;4944177;28;20408;-86
2023/09/22 12:50:10;;;;;;;;;;;;;;;14.81;100.00;100053.19;4954384;28;19934;-87
2023/09/22 12:52:56;;;;;;;;;;;;;;;14.76;100.00;100066.03;4934233;28;19989;-87
2023/09/22 12:55:41;;;;;;;;;;;;;;;14.70;100.00;100059.28;4932264;28;19940;-87
2023/09/22 12:58:27;;;;;;;;;;;;;;;14.68;100.00;100074.56;4956093;28;19922;-89
2023/09/22 13:01:13;;;;;;;;;;;;;;;14.67;100.00;100075.53;4967576;28;19968;-86
2023/09/22 13:03:59;;;;;;;;;;;;;;;14.68;100.00;100069.22;4957713;28;19930;-89
2023/09/22 13:06:45;;;;;;;;;;;;;;;14.72;100.00;100069.84;4973275;28;20789;-87
2023/09/22 13:09:33;;;;;;;;;;;;;;;14.79;100.00;100079.97;4958614;28;19930;-87
2023/09/22 13:12:19;;;;;;;;;;;;;;;14.79;100.00;100082.63;4974239;28;19999;-87
2023/09/22 13:15:05;;;;;;;;;;;;;;;14.79;100.00;100089.75;4974477;28;19951;-87
2023/09/22 13:17:51;;;;;;;;;;;;;;;14.76;100.00;100098.00;4974763;28;19929;-89
2023/09/22 13:20:37;;;;;;;;;;;;;;;14.75;100.00;100096.28;4945353;28;19930;-91
2023/09/22 13:23:26;;;;;;;;;;;;;;;14.72;100.00;100093.81;4976064;28;19969;-90
2023/09/22 13:26:20;;;;;;;;;;;;;;;14.72;100.00;100102.69;4944526;28;19929;-89
2023/09/22 13:29:06;;;;;;;;;;;;;;;14.71;100.00;100102.78;4940798;28;19933;-88
2023/09/22 13:31:52;;;;;;;;;;;;;;;14.68;100.00;100093.19;4975000;28;19934;-89
2023/09/22 13:34:37;;;;;;;;;;;;;;;14.68;100.00;100103.84;4957466;28;19925;-89
2023/09/22 13:37:23;;;;;;;;;;;;;;;14.72;100.00;100100.00;4959148;28;20372;-90
2023/09/22 13:40:12;;;;;;;;;;;;;;;14.77;100.00;100099.69;4959792;28;19949;-87
2023/09/22 13:42:58;;;;;;;;;;;;;;;14.82;100.00;100099.34;4955792;28;20017;-89
2023/09/22 13:45:44;;;;;;;;;;;;;;;14.86;100.00;100106.16;4960393;28;21849;-88
2023/09/22 13:48:30;;;;;;;;;;;;;;;14.93;100.00;100110.06;4945088;28;19930;-90
2023/09/22 13:51:15;;;;;;;;;;;;;;;15.00;100.00;100105.09;4974096;28;20080;-89
2023/09/22 13:54:01;;;;;;;;;;;;;;;15.04;100.00;100107.41;4947251;28;19989;-86
2023/09/22 13:56:47;;;;;;;;;;;;;;;15.12;100.00;100111.28;4959050;28;20320;-88
2023/09/22 13:59:33;;;;;;;;;;;;;;;15.19;100.00;100115.19;4959489;28;19934;-90
2023/09/22 14:02:18;;;;;;;;;;;;;;;15.24;100.00;100113.03;4974800;28;19930;-88
2023/09/22 14:05:05;;;;;;;;;;;;;;;15.27;100.00;100104.81;4973006;28;19933;-86
2023/09/22 14:07:51;;;;;;;;;;;;;;;15.28;100.00;100102.97;4979020;28;19930;-91
2023/09/22 14:10:37;;;;;;;;;;;;;;;15.31;100.00;100108.09;4972625;28;19926;-88
2023/09/22 14:13:23;;;;;;;;;;;;;;;15.35;100.00;100112.19;4976147;28;20381;-88
2023/09/22 14:16:14;;;;;;;;;;;;;;;15.40;100.00;100104.69;4973237;28;21155;-89